Time;durP1;ratioP1;P1;durP2;ratioP2;P2;SDS_P1;SDS_P2;PMS_P1;PMS_P2;Temp;Humidity;BMP_temperature;BMP_pressure;BME280_temperature;BME280_humidity;BME280_pressure;Samples;Min_cycle;Max_cycle;Signal;HPM_P1;HPM_P2
2022/08/09 00:00:12;;;;;;;5.60;3.07;;;;;;;17.96;79.22;101718.19;690125;28;1108;-43
2022/08/09 00:00:33;;;;;;;5.85;3.00;;;;;;;17.96;77.99;101712.91;689603;28;1322;-44
2022/08/09 00:00:53;;;;;;;5.77;3.00;;;;;;;18.00;78.85;101711.09;690456;28;4521;-44
2022/08/09 00:01:16;;;;;;;4.60;2.87;;;;;;;18.01;79.19;101711.06;689357;28;1112;-45
2022/08/09 00:01:37;;;;;;;5.43;3.00;;;;;;;17.99;78.87;101706.69;687289;28;1387;-47
2022/08/09 00:01:57;;;;;;;5.95;2.85;;;;;;;18.00;79.13;101711.09;687139;28;1130;-43
2022/08/09 00:02:17;;;;;;;5.87;2.90;;;;;;;17.99;79.03;101707.56;690773;28;1075;-44
2022/08/09 00:02:39;;;;;;;5.40;3.10;;;;;;;17.95;79.17;101710.28;689211;28;1311;-44
2022/08/09 00:02:59;;;;;;;5.07;3.20;;;;;;;17.96;79.20;101707.63;689847;28;928;-44
2022/08/09 00:03:19;;;;;;;4.78;2.90;;;;;;;18.00;78.95;101706.66;687764;28;1328;-46
2022/08/09 00:03:40;;;;;;;5.33;2.83;;;;;;;18.00;78.47;101708.44;689823;28;1159;-44
2022/08/09 00:04:03;;;;;;;5.43;2.90;;;;;;;18.00;79.02;101711.09;689214;28;4366;-45
2022/08/09 00:04:23;;;;;;;5.15;2.80;;;;;;;17.96;78.30;101712.91;690093;28;1230;-45
2022/08/09 00:04:43;;;;;;;5.65;3.00;;;;;;;17.96;78.17;101701.47;690862;28;1307;-44
2022/08/09 00:05:04;;;;;;;5.43;3.00;;;;;;;17.96;77.88;101718.19;689178;28;1348;-44
2022/08/09 00:05:25;;;;;;;5.55;3.17;;;;;;;17.99;78.84;101707.56;690503;28;1174;-47
2022/08/09 00:05:45;;;;;;;5.40;2.90;;;;;;;17.98;78.29;101711.09;691181;28;1373;-43
2022/08/09 00:06:06;;;;;;;6.83;2.70;;;;;;;17.96;78.30;101704.97;689903;28;1502;-44
2022/08/09 00:06:26;;;;;;;5.10;2.60;;;;;;;17.90;78.73;101707.69;686779;28;1414;-44
2022/08/09 00:06:47;;;;;;;5.80;2.80;;;;;;;17.91;79.94;101708.56;687757;28;1525;-44
2022/08/09 00:07:07;;;;;;;4.78;2.90;;;;;;;17.96;78.83;101707.63;685598;28;4363;-47
2022/08/09 00:07:28;;;;;;;5.23;3.30;;;;;;;17.95;78.60;101711.16;689626;28;1305;-44
2022/08/09 00:07:48;;;;;;;5.00;3.22;;;;;;;17.98;78.71;101707.59;690947;28;1674;-47
2022/08/09 00:08:11;;;;;;;4.87;3.03;;;;;;;17.97;78.17;101705.84;691343;28;1190;-44
2022/08/09 00:08:32;;;;;;;5.53;3.00;;;;;;;17.94;79.49;101717.34;690388;28;1218;-45
2022/08/09 00:08:55;;;;;;;5.45;2.78;;;;;;;17.91;79.13;101712.13;691311;28;1372;-47
2022/08/09 00:09:16;;;;;;;5.60;2.90;;;;;;;17.94;79.07;101714.69;691129;28;1165;-45
2022/08/09 00:09:37;;;;;;;6.30;2.90;;;;;;;17.96;79.21;101714.69;690642;28;1250;-44
2022/08/09 00:09:58;;;;;;;4.22;2.80;;;;;;;17.96;79.26;101712.91;689239;28;4517;-43
2022/08/09 00:10:18;;;;;;;4.90;2.90;;;;;;;17.96;78.72;101704.97;690553;28;1067;-44
2022/08/09 00:10:39;;;;;;;5.67;2.93;;;;;;;17.97;79.20;101712.00;690121;28;1191;-44
2022/08/09 00:11:00;;;;;;;5.85;2.90;;;;;;;18.01;79.40;101707.53;690987;28;1356;-46
2022/08/09 00:11:21;;;;;;;4.68;2.90;;;;;;;18.07;79.10;101710.06;689931;28;2003;-44
2022/08/09 00:11:42;;;;;;;4.95;2.90;;;;;;;18.03;78.98;101711.88;690273;28;1220;-45
2022/08/09 00:12:02;;;;;;;4.40;2.80;;;;;;;17.99;79.01;101707.56;690488;28;1334;-44
2022/08/09 00:12:23;;;;;;;5.28;2.90;;;;;;;17.98;78.67;101711.09;690738;28;1210;-44
2022/08/09 00:12:43;;;;;;;5.67;2.97;;;;;;;18.00;79.59;101717.25;690127;28;1254;-45
2022/08/09 00:13:05;;;;;;;4.78;2.92;;;;;;;17.98;78.84;101707.59;688829;28;4520;-45
2022/08/09 00:13:26;;;;;;;6.68;2.88;;;;;;;17.97;79.21;101714.66;689797;28;1237;-44
2022/08/09 00:13:48;;;;;;;6.40;3.00;;;;;;;17.96;79.07;101712.91;689831;28;1524;-44
2022/08/09 00:14:08;;;;;;;4.95;3.13;;;;;;;17.95;78.28;101710.28;690524;28;1131;-44
2022/08/09 00:14:29;;;;;;;5.63;3.08;;;;;;;17.95;78.11;101711.16;690178;28;1219;-44
2022/08/09 00:14:50;;;;;;;6.93;2.90;;;;;;;17.92;78.38;101711.22;690615;28;1168;-46
2022/08/09 00:15:12;;;;;;;6.13;3.08;;;;;;;17.91;78.53;101712.13;691342;28;1278;-46
2022/08/09 00:15:33;;;;;;;5.28;3.03;;;;;;;17.92;78.32;101713.88;689192;28;1460;-44
2022/08/09 00:15:53;;;;;;;4.33;2.80;;;;;;;17.93;79.13;101712.97;690351;28;4399;-43
2022/08/09 00:16:14;;;;;;;5.82;3.10;;;;;;;17.96;79.55;101706.75;691016;28;1135;-44
2022/08/09 00:16:34;;;;;;;5.20;2.95;;;;;;;17.96;79.34;101714.69;692926;28;1306;-43
2022/08/09 00:16:55;;;;;;;5.53;3.10;;;;;;;17.91;79.58;101714.75;693665;28;1255;-43
2022/08/09 00:17:16;;;;;;;5.75;2.92;;;;;;;17.97;79.24;101705.84;692419;28;1194;-43
2022/08/09 00:17:36;;;;;;;5.55;2.80;;;;;;;17.96;78.64;101712.91;689482;28;956;-44
2022/08/09 00:17:57;;;;;;;5.87;2.70;;;;;;;17.94;79.09;101713.84;690180;28;1279;-44
2022/08/09 00:18:17;;;;;;;5.40;2.88;;;;;;;17.92;79.39;101711.22;690429;28;1087;-44
2022/08/09 00:18:37;;;;;;;5.33;3.00;;;;;;;17.91;78.45;101708.56;686779;28;1255;-45
2022/08/09 00:18:58;;;;;;;4.47;2.80;;;;;;;17.94;79.08;101705.91;687021;28;4280;-43
2022/08/09 00:19:18;;;;;;;5.30;2.97;;;;;;;17.95;78.98;101715.59;686892;28;3618;-44
2022/08/09 00:19:39;;;;;;;5.20;2.80;;;;;;;17.91;78.55;101706.81;689894;28;1247;-44
2022/08/09 00:19:59;;;;;;;4.60;2.78;;;;;;;17.92;79.67;101713.88;690505;28;1274;-43
2022/08/09 00:20:20;;;;;;;5.40;2.80;;;;;;;18.01;79.76;101710.16;688969;28;1124;-43
2022/08/09 00:20:40;;;;;;;5.65;3.03;;;;;;;18.02;79.41;101702.19;691431;28;1169;-45
2022/08/09 00:21:04;;;;;;;5.43;3.00;;;;;;;18.04;79.28;101699.50;689256;28;1181;-43
2022/08/09 00:21:24;;;;;;;5.50;2.90;;;;;;;18.02;79.39;101706.63;692626;28;1048;-44
2022/08/09 00:21:45;;;;;;;5.50;2.90;;;;;;;18.05;79.36;101706.56;692695;28;1404;-44
2022/08/09 00:22:05;;;;;;;5.95;2.78;;;;;;;18.01;79.00;101696.94;692675;28;4427;-44
2022/08/09 00:22:25;;;;;;;5.87;2.80;;;;;;;18.01;79.06;101700.47;692851;28;1215;-43
2022/08/09 00:22:46;;;;;;;5.28;2.80;;;;;;;18.02;78.94;101702.19;692615;28;1381;-43
2022/08/09 00:23:06;;;;;;;5.07;2.83;;;;;;;18.00;79.24;101703.16;692558;28;1584;-44
2022/08/09 00:23:26;;;;;;;5.00;2.83;;;;;;;17.98;78.93;101705.78;690715;28;1381;-46
2022/08/09 00:23:47;;;;;;;4.97;3.10;;;;;;;17.91;79.56;101698.88;690519;28;1209;-44
2022/08/09 00:24:07;;;;;;;4.30;2.80;;;;;;;17.91;79.55;101704.19;690779;28;958;-43
2022/08/09 00:24:30;;;;;;;4.97;2.88;;;;;;;17.97;80.27;101704.09;689219;28;956;-45
2022/08/09 00:24:50;;;;;;;5.38;3.00;;;;;;;17.97;79.67;101704.09;689661;28;1337;-44
2022/08/09 00:25:11;;;;;;;5.33;3.00;;;;;;;17.96;79.48;101697.03;689803;28;4496;-44
2022/08/09 00:25:31;;;;;;;5.35;2.80;;;;;;;17.94;79.41;101700.59;689820;28;1361;-43
2022/08/09 00:25:52;;;;;;;5.97;2.90;;;;;;;17.92;79.28;101686.56;690498;28;1156;-46
2022/08/09 00:26:12;;;;;;;6.40;2.90;;;;;;;17.88;79.83;101698.91;690427;28;1214;-44
2022/08/09 00:26:32;;;;;;;5.78;3.05;;;;;;;17.88;79.99;101693.63;690261;28;1333;-45
2022/08/09 00:26:53;;;;;;;4.70;2.90;;;;;;;17.86;79.46;101688.38;690947;28;1350;-44
2022/08/09 00:27:14;;;;;;;4.78;2.90;;;;;;;17.85;78.86;101693.69;687392;28;1127;-46
2022/08/09 00:27:34;;;;;;;5.40;2.92;;;;;;;17.82;80.99;101701.66;687047;28;1256;-46
2022/08/09 00:27:54;;;;;;;5.47;2.80;;;;;;;17.78;80.37;101698.22;686274;28;4428;-44
2022/08/09 00:28:15;;;;;;;4.57;2.77;;;;;;;17.78;79.57;101702.66;687307;28;1335;-44
2022/08/09 00:28:35;;;;;;;5.22;3.00;;;;;;;17.75;79.85;101700.03;685849;28;1302;-43
2022/08/09 00:28:56;;;;;;;4.87;2.90;;;;;;;17.72;79.74;101695.66;688480;28;1107;-44
2022/08/09 00:29:17;;;;;;;5.40;2.90;;;;;;;17.80;80.29;101695.53;690271;28;1238;-44
2022/08/09 00:29:37;;;;;;;4.43;2.70;;;;;;;17.77;79.73;101693.81;691046;28;1294;-44
2022/08/09 00:29:57;;;;;;;5.93;3.10;;;;;;;17.81;79.93;101698.16;688213;28;1362;-44
2022/08/09 00:30:18;;;;;;;5.20;3.00;;;;;;;17.82;79.93;101693.72;687734;28;1072;-45
2022/08/09 00:30:38;;;;;;;5.27;3.00;;;;;;;17.75;80.41;101693.00;690298;28;1152;-44
2022/08/09 00:30:59;;;;;;;5.77;2.90;;;;;;;17.79;80.30;101693.78;688984;28;4383;-44
2022/08/09 00:31:20;;;;;;;5.20;2.90;;;;;;;17.80;80.45;101691.13;690003;28;1914;-44
2022/08/09 00:31:41;;;;;;;4.95;2.70;;;;;;;17.79;80.57;101693.78;689826;28;1306;-44
2022/08/09 00:32:01;;;;;;;4.70;2.80;;;;;;;17.76;80.24;101693.84;692682;28;1167;-45
2022/08/09 00:32:22;;;;;;;6.15;2.95;;;;;;;17.74;80.29;101693.88;693162;28;1267;-44
2022/08/09 00:32:42;;;;;;;6.27;2.90;;;;;;;17.80;80.32;101699.06;693411;28;1066;-44
2022/08/09 00:33:03;;;;;;;5.03;2.90;;;;;;;17.78;79.91;101697.34;691924;28;1247;-44
2022/08/09 00:33:23;;;;;;;5.43;2.83;;;;;;;17.74;79.66;101691.25;692178;28;1281;-43
2022/08/09 00:33:44;;;;;;;6.45;3.10;;;;;;;17.73;79.74;101688.63;690444;28;1946;-45
2022/08/09 00:34:04;;;;;;;5.63;2.80;;;;;;;17.69;79.60;101691.34;690554;28;4376;-46
2022/08/09 00:34:24;;;;;;;5.30;3.00;;;;;;;17.69;79.74;101695.72;690590;28;1454;-44
2022/08/09 00:34:45;;;;;;;4.83;2.87;;;;;;;17.68;79.51;101686.94;689101;28;1120;-44
2022/08/09 00:35:06;;;;;;;5.53;3.07;;;;;;;17.67;79.53;101693.13;688069;28;1282;-44
2022/08/09 00:35:27;;;;;;;4.75;2.90;;;;;;;17.69;80.81;101699.28;688928;28;1429;-44
2022/08/09 00:35:47;;;;;;;6.18;3.15;;;;;;;17.73;80.60;101697.44;688789;28;1513;-45
2022/08/09 00:36:08;;;;;;;6.05;3.30;;;;;;;17.74;80.42;101691.25;688607;28;1226;-45
2022/08/09 00:36:28;;;;;;;5.20;3.20;;;;;;;17.72;81.01;101700.97;687873;28;1287;-45
2022/08/09 00:36:48;;;;;;;5.90;3.13;;;;;;;17.70;80.59;101689.56;688373;28;1179;-47
2022/08/09 00:37:09;;;;;;;6.20;3.03;;;;;;;17.77;80.95;101685.88;688282;28;4430;-45
2022/08/09 00:37:29;;;;;;;4.55;3.00;;;;;;;17.78;80.87;101695.56;684838;28;1226;-44
2022/08/09 00:37:49;;;;;;;6.23;2.80;;;;;;;17.76;80.50;101688.56;684237;28;1139;-44
2022/08/09 00:38:11;;;;;;;6.50;3.13;;;;;;;17.75;80.55;101697.41;687732;28;1057;-45
2022/08/09 00:38:32;;;;;;;5.18;3.03;;;;;;;17.71;80.62;101691.31;687002;28;1143;-45
2022/08/09 00:38:52;;;;;;;4.55;2.97;;;;;;;17.77;80.93;101690.31;690786;28;1267;-44
2022/08/09 00:39:13;;;;;;;4.47;2.70;;;;;;;17.74;80.19;101698.31;689925;28;1273;-44
2022/08/09 00:39:33;;;;;;;5.88;2.83;;;;;;;17.65;80.77;101692.28;692710;28;1254;-45
2022/08/09 00:39:53;;;;;;;4.97;2.70;;;;;;;17.63;81.56;101691.44;691942;28;4435;-45
2022/08/09 00:40:14;;;;;;;4.82;2.78;;;;;;;17.63;81.26;101688.78;692026;28;1054;-45
2022/08/09 00:40:34;;;;;;;4.63;2.90;;;;;;;17.62;81.08;101689.69;690317;28;1428;-46
2022/08/09 00:40:54;;;;;;;4.93;2.70;;;;;;;17.62;81.17;101694.09;689898;28;1638;-44
2022/08/09 00:41:17;;;;;;;5.78;2.72;;;;;;;17.63;80.98;101696.72;687853;28;1284;-45
2022/08/09 00:41:38;;;;;;;6.75;2.95;;;;;;;17.70;80.47;101693.06;686408;28;1181;-45
2022/08/09 00:41:58;;;;;;;4.57;2.70;;;;;;;17.74;81.34;101695.66;688029;28;1287;-45
2022/08/09 00:42:18;;;;;;;5.03;2.80;;;;;;;17.70;80.56;101693.06;688166;28;1211;-44
2022/08/09 00:42:39;;;;;;;5.70;3.00;;;;;;;17.68;80.35;101692.22;690546;28;1120;-44
2022/08/09 00:43:00;;;;;;;7.72;3.10;;;;;;;17.68;79.93;101699.28;689652;28;4369;-45
2022/08/09 00:43:21;;;;;;;6.30;2.90;;;;;;;17.67;80.55;101690.47;692751;28;1210;-45
2022/08/09 00:43:43;;;;;;;5.15;2.95;;;;;;;17.68;80.33;101696.63;693092;28;1265;-44
2022/08/09 00:44:03;;;;;;;4.63;3.10;;;;;;;17.71;80.88;101696.59;692671;28;1190;-44
2022/08/09 00:44:24;;;;;;;4.97;2.92;;;;;;;17.78;80.43;101700.88;692773;28;1518;-44
2022/08/09 00:44:44;;;;;;;5.40;2.80;;;;;;;17.75;80.46;101692.09;692849;28;1258;-45
2022/08/09 00:45:06;;;;;;;4.75;2.78;;;;;;;17.68;80.34;101692.22;691787;28;1424;-44
2022/08/09 00:45:27;;;;;;;4.82;2.90;;;;;;;17.68;80.22;101693.97;690738;28;2058;-44
2022/08/09 00:45:47;;;;;;;4.80;3.13;;;;;;;17.67;79.85;101694.91;690588;28;1520;-44
2022/08/09 00:46:08;;;;;;;5.63;3.00;;;;;;;17.65;81.38;101697.59;689883;28;4706;-46
2022/08/09 00:46:29;;;;;;;5.03;2.97;;;;;;;17.69;81.41;101696.63;690269;28;1096;-44
2022/08/09 00:46:49;;;;;;;4.65;2.88;;;;;;;17.68;80.19;101696.63;691859;28;1265;-45
2022/08/09 00:47:09;;;;;;;4.80;3.00;;;;;;;17.68;80.02;101702.81;689443;28;1167;-45
2022/08/09 00:47:31;;;;;;;4.97;3.10;;;;;;;17.67;79.79;101701.06;690421;28;1151;-45
2022/08/09 00:47:51;;;;;;;6.18;3.10;;;;;;;17.66;80.74;101701.09;692679;28;1143;-45
2022/08/09 00:48:11;;;;;;;5.80;3.23;;;;;;;17.65;80.22;101702.88;692546;28;1213;-45
2022/08/09 00:48:32;;;;;;;6.00;2.80;;;;;;;17.64;80.39;101690.53;692175;28;1313;-45
2022/08/09 00:48:52;;;;;;;6.50;3.00;;;;;;;17.73;81.35;101696.56;690281;28;1140;-45
2022/08/09 00:49:13;;;;;;;5.47;2.90;;;;;;;17.76;80.67;101699.16;689771;28;4379;-45
2022/08/09 00:49:36;;;;;;;6.43;3.20;;;;;;;17.78;81.24;101702.66;690415;28;1278;-45
2022/08/09 00:49:57;;;;;;;5.85;2.95;;;;;;;17.75;80.32;101697.41;687800;28;1155;-45
2022/08/09 00:50:17;;;;;;;5.40;3.10;;;;;;;17.70;80.80;101697.50;689058;28;1117;-44
2022/08/09 00:50:38;;;;;;;5.05;2.70;;;;;;;17.67;81.04;101701.06;690006;28;1207;-45
2022/08/09 00:51:02;;;;;;;6.30;2.80;;;;;;;17.65;80.53;101702.88;690528;28;1334;-44
2022/08/09 00:51:23;;;;;;;6.63;2.95;;;;;;;17.64;81.15;101695.81;690281;28;1999;-45
2022/08/09 00:51:43;;;;;;;5.20;2.63;;;;;;;17.62;81.41;101702.91;690365;28;1452;-44
2022/08/09 00:52:05;;;;;;;5.40;2.90;;;;;;;17.62;81.19;101708.19;689716;28;4360;-44
2022/08/09 00:52:29;;;;;;;4.65;2.90;;;;;;;17.71;81.00;101704.53;690494;28;1238;-45
2022/08/09 00:52:51;;;;;;;4.45;2.92;;;;;;;17.66;80.82;101699.31;690174;28;1198;-44
2022/08/09 00:53:11;;;;;;;5.30;3.00;;;;;;;17.61;80.62;101703.81;690021;28;1243;-45
2022/08/09 00:53:34;;;;;;;5.87;3.20;;;;;;;17.57;81.82;101709.16;689993;28;1136;-45
2022/08/09 00:53:54;;;;;;;6.38;3.15;;;;;;;17.57;81.51;101704.78;689315;28;1267;-45
2022/08/09 00:54:15;;;;;;;6.07;2.90;;;;;;;17.58;81.75;101705.63;690370;28;1355;-44
2022/08/09 00:54:35;;;;;;;6.70;3.05;;;;;;;17.57;82.20;101706.53;690406;28;1100;-44
2022/08/09 00:54:58;;;;;;;5.57;3.00;;;;;;;17.56;82.04;101703.03;691874;28;4365;-45
2022/08/09 00:55:18;;;;;;;4.22;2.58;;;;;;;17.53;82.08;101708.38;690536;28;1098;-44
2022/08/09 00:55:39;;;;;;;5.23;2.70;;;;;;;17.57;82.06;101714.47;690027;28;1249;-44
2022/08/09 00:56:00;;;;;;;4.55;2.70;;;;;;;17.56;82.34;101710.09;690633;28;1274;-46
2022/08/09 00:56:21;;;;;;;6.05;2.70;;;;;;;17.52;81.58;101709.25;689720;28;1226;-46
2022/08/09 00:56:41;;;;;;;5.78;2.90;;;;;;;17.51;80.96;101707.50;689733;28;1238;-46
2022/08/09 00:57:03;;;;;;;6.67;3.00;;;;;;;17.49;81.93;101711.97;689969;28;1378;-44
2022/08/09 00:57:23;;;;;;;5.07;3.10;;;;;;;17.48;82.01;101718.13;690332;28;1457;-46
2022/08/09 00:57:43;;;;;;;5.43;2.93;;;;;;;17.46;81.41;101712.00;689083;28;1278;-44
2022/08/09 00:58:04;;;;;;;5.50;2.77;;;;;;;17.52;81.31;101714.53;689427;28;4324;-45
2022/08/09 00:58:24;;;;;;;4.20;2.90;;;;;;;17.49;81.55;101711.97;692548;28;1447;-44
2022/08/09 00:58:45;;;;;;;5.67;3.03;;;;;;;17.59;81.55;101716.19;694037;28;1247;-44
2022/08/09 00:59:05;;;;;;;8.15;3.00;;;;;;;17.60;81.92;101717.94;692646;28;1457;-44
2022/08/09 00:59:25;;;;;;;6.67;3.07;;;;;;;17.57;82.17;101718.00;686575;28;1428;-46
2022/08/09 00:59:47;;;;;;;5.47;3.00;;;;;;;17.57;81.77;101717.09;687706;28;1381;-46
2022/08/09 01:00:09;;;;;;;5.63;2.90;;;;;;;17.55;82.24;101727.72;688013;28;1685;-46
2022/08/09 01:00:29;;;;;;;5.20;2.90;;;;;;;17.49;83.03;101717.25;687027;28;1215;-45
2022/08/09 01:00:53;;;;;;;4.63;2.80;;;;;;;17.51;81.66;101720.72;687200;28;1175;-46
2022/08/09 01:01:18;;;;;;;4.60;2.78;;;;;;;17.46;81.51;101717.28;687354;28;4789;-45
2022/08/09 01:01:41;;;;;;;6.63;2.80;;;;;;;17.45;82.01;101715.56;690073;28;1135;-44
2022/08/09 01:02:01;;;;;;;4.97;2.97;;;;;;;17.44;82.28;101724.38;689753;28;1452;-45
2022/08/09 01:02:27;;;;;;;6.18;3.10;;;;;;;17.43;82.52;101722.63;691002;28;1116;-45
2022/08/09 01:02:48;;;;;;;4.78;2.80;;;;;;;17.41;82.09;101719.16;690217;28;1378;-44
2022/08/09 01:03:27;;;;;;;4.40;2.80;;;;;;;17.40;82.53;101723.53;689939;28;1135;-44
2022/08/09 01:04:09;;;;;;;5.13;2.88;;;;;;;17.31;82.78;101716.66;689325;28;1266;-46
2022/08/09 01:04:36;;;;;;;5.03;2.90;;;;;;;17.28;82.45;101721.97;689444;28;4898;-44
2022/08/09 01:05:01;;;;;;;4.90;2.97;;;;;;;17.30;82.44;101717.53;690394;28;1236;-45
2022/08/09 01:05:36;;;;;;;4.68;2.90;;;;;;;17.30;83.19;101721.97;689180;28;2041;-45
2022/08/09 01:06:32;;;;;;;4.88;3.15;;;;;;;17.30;83.30;101717.53;690483;28;1128;-45
2022/08/09 01:07:11;;;;;;;5.82;2.70;;;;;;;17.30;83.02;101721.97;683590;28;1347;-45
2022/08/09 01:07:45;;;;;;;5.30;2.75;;;;;;;17.31;82.69;101723.72;686550;28;4910;-44
2022/08/09 01:08:18;;;;;;;4.43;2.80;;;;;;;17.32;83.03;101720.16;690120;28;1234;-44
2022/08/09 01:08:42;;;;;;;5.28;2.97;;;;;;;17.30;82.46;101720.19;692990;28;1247;-45
2022/08/09 01:09:08;;;;;;;6.35;3.20;;;;;;;17.29;82.64;101721.09;693331;28;1290;-44
2022/08/09 01:09:44;;;;;;;5.55;3.10;;;;;;;17.28;82.71;101714.06;688809;28;1335;-45
2022/08/09 01:10:20;;;;;;;4.80;2.78;;;;;;;17.26;82.62;101717.63;688457;28;4384;-46
2022/08/09 01:10:46;;;;;;;6.38;3.00;;;;;;;17.24;82.72;101712.38;689316;28;1374;-45
2022/08/09 01:11:32;;;;;;;5.15;3.00;;;;;;;17.17;83.38;101716.00;689172;28;1585;-44
2022/08/09 01:12:28;;;;;;;4.15;2.60;;;;;;;17.23;83.12;101715.03;685079;28;1299;-44
2022/08/09 01:13:03;;;;;;;5.75;2.67;;;;;;;17.36;83.48;101717.44;687450;28;1074;-44
2022/08/09 01:13:39;;;;;;;5.13;2.78;;;;;;;17.35;83.21;101717.47;689734;28;4904;-45
2022/08/09 01:14:09;;;;;;;5.65;2.95;;;;;;;17.30;83.53;101717.53;690582;28;1036;-44
2022/08/09 01:14:39;;;;;;;4.25;2.80;;;;;;;17.31;83.08;101708.72;689601;28;1221;-45
2022/08/09 01:15:04;;;;;;;5.00;2.90;;;;;;;17.33;82.82;101712.22;693314;28;1230;-45
2022/08/09 01:15:29;;;;;;;7.20;3.20;;;;;;;17.32;83.08;101715.75;693385;28;1412;-44
2022/08/09 01:15:52;;;;;;;5.97;3.25;;;;;;;17.30;83.30;101716.66;690532;28;3825;-44
2022/08/09 01:16:15;;;;;;;6.47;3.03;;;;;;;17.30;84.07;101722.81;688972;28;4514;-45
2022/08/09 01:16:43;;;;;;;5.38;3.13;;;;;;;17.28;84.20;101715.81;690110;28;1220;-45
2022/08/09 01:17:10;;;;;;;5.57;2.80;;;;;;;17.26;83.26;101707.91;690074;28;1460;-45
2022/08/09 01:17:38;;;;;;;4.43;2.90;;;;;;;17.29;83.39;101709.63;689596;28;1214;-44
2022/08/09 01:18:06;;;;;;;5.45;3.00;;;;;;;17.33;83.29;101713.97;689107;28;1156;-45
2022/08/09 01:18:30;;;;;;;8.60;2.90;;;;;;;17.30;83.24;101712.25;690178;28;1429;-45
2022/08/09 01:18:56;;;;;;;5.10;2.70;;;;;;;17.31;83.06;101711.34;691260;28;1297;-44
2022/08/09 01:19:50;;;;;;;5.82;2.88;;;;;;;17.29;83.33;101714.91;690090;28;4736;-44
2022/08/09 01:20:20;;;;;;;6.50;2.80;;;;;;;17.29;83.70;101715.81;690721;28;1687;-44
2022/08/09 01:20:52;;;;;;;5.65;2.80;;;;;;;17.31;83.56;101715.78;690588;28;896;-45
2022/08/09 01:21:31;;;;;;;5.53;2.90;;;;;;;17.30;83.27;101712.25;692053;28;1230;-44
2022/08/09 01:22:12;;;;;;;6.30;2.90;;;;;;;17.25;83.06;101707.94;692283;28;1254;-45
2022/08/09 01:22:41;;;;;;;5.38;3.03;;;;;;;17.23;83.16;101713.25;690637;28;4829;-46
2022/08/09 01:23:23;;;;;;;5.35;2.88;;;;;;;17.18;83.67;101713.34;689683;28;1333;-44
2022/08/09 01:23:55;;;;;;;4.97;2.80;;;;;;;17.31;83.45;101713.13;689589;28;1382;-44
2022/08/09 01:24:41;;;;;;;5.68;2.80;;;;;;;17.34;83.66;101708.66;689166;28;1163;-45
2022/08/09 01:25:20;;;;;;;5.85;2.90;;;;;;;17.40;82.90;101717.41;688666;28;4454;-45
2022/08/09 01:25:55;;;;;;;4.95;2.85;;;;;;;17.34;83.28;101716.59;690304;28;1052;-44
2022/08/09 01:26:50;;;;;;;5.07;2.70;;;;;;;17.28;83.74;101711.41;690042;28;1365;-44
2022/08/09 01:27:16;;;;;;;5.35;2.75;;;;;;;17.21;83.86;101711.53;689588;28;1339;-45
2022/08/09 01:27:38;;;;;;;4.78;2.72;;;;;;;17.19;84.75;101715.06;689304;28;1120;-45
2022/08/09 01:28:01;;;;;;;4.13;2.67;;;;;;;17.21;83.99;101711.53;690092;28;4350;-44
2022/08/09 01:28:23;;;;;;;4.32;2.60;;;;;;;17.33;83.76;101717.50;689482;28;1200;-47
2022/08/09 01:28:48;;;;;;;4.90;2.75;;;;;;;17.30;83.05;101714.88;687316;28;1554;-44
2022/08/09 01:29:12;;;;;;;5.20;2.80;;;;;;;17.35;83.45;101715.69;687543;28;1370;-44
2022/08/09 01:29:46;;;;;;;5.10;2.75;;;;;;;17.32;83.24;101714.88;690141;28;1268;-47
2022/08/09 01:30:09;;;;;;;6.65;2.90;;;;;;;17.30;83.27;101714.03;690700;28;1396;-45
2022/08/09 01:30:31;;;;;;;5.35;2.75;;;;;;;17.24;83.72;101714.09;690905;28;1212;-44
2022/08/09 01:30:54;;;;;;;5.30;2.58;;;;;;;17.24;83.91;101714.09;692298;28;1319;-47
2022/08/09 01:31:18;;;;;;;5.35;2.63;;;;;;;17.26;84.13;101705.25;684764;28;4878;-44
2022/08/09 01:31:42;;;;;;;4.95;2.70;;;;;;;17.18;83.89;101705.41;690096;28;1918;-44
2022/08/09 01:32:04;;;;;;;6.55;2.60;;;;;;;17.20;84.39;101710.66;688967;28;1270;-45
2022/08/09 01:32:32;;;;;;;5.53;2.75;;;;;;;17.23;84.22;101709.75;692604;28;1432;-46
2022/08/09 01:32:55;;;;;;;5.57;2.80;;;;;;;17.23;84.93;101704.47;692574;28;1207;-44
2022/08/09 01:33:18;;;;;;;4.85;2.70;;;;;;;17.19;85.17;101708.91;691628;28;1079;-44
2022/08/09 01:33:40;;;;;;;3.75;2.60;;;;;;;17.19;85.47;101711.56;692411;28;1290;-45
2022/08/09 01:34:03;;;;;;;4.15;2.60;;;;;;;17.18;84.23;101705.41;693233;28;4630;-44
2022/08/09 01:34:26;;;;;;;4.63;2.70;;;;;;;17.17;85.67;101711.56;692074;28;1032;-45
2022/08/09 01:34:52;;;;;;;4.72;2.80;;;;;;;17.17;84.85;101708.06;691791;28;1251;-45
2022/08/09 01:35:21;;;;;;;5.30;2.75;;;;;;;17.10;85.55;101698.47;691594;28;1091;-44
2022/08/09 01:35:54;;;;;;;5.93;2.83;;;;;;;17.10;85.69;101698.47;690353;28;1246;-44
2022/08/09 01:36:20;;;;;;;4.65;2.78;;;;;;;17.10;85.37;101693.19;690913;28;1201;-45
2022/08/09 01:36:44;;;;;;;5.50;2.80;;;;;;;17.14;85.19;101700.16;690008;28;1341;-44
2022/08/09 01:37:08;;;;;;;5.38;2.85;;;;;;;17.10;84.92;101703.75;688548;28;5258;-45
2022/08/09 01:37:30;;;;;;;5.82;2.97;;;;;;;17.10;84.69;101701.13;686432;28;1327;-44
2022/08/09 01:37:54;;;;;;;5.82;3.05;;;;;;;17.06;84.49;101691.50;688535;28;1370;-45
2022/08/09 01:38:19;;;;;;;4.72;2.63;;;;;;;17.08;83.93;101697.66;686306;28;1139;-45
2022/08/09 01:38:42;;;;;;;6.50;2.95;;;;;;;17.19;84.35;101700.97;684621;28;1271;-45
2022/08/09 01:39:03;;;;;;;5.45;3.38;;;;;;;17.24;84.06;101700.91;682852;28;1410;-44
2022/08/09 01:39:25;;;;;;;6.57;3.00;;;;;;;17.21;83.96;101707.13;685554;28;1339;-44
2022/08/09 01:39:49;;;;;;;7.85;2.90;;;;;;;17.17;84.48;101700.16;687017;28;1359;-46
2022/08/09 01:40:12;;;;;;;7.10;3.10;;;;;;;17.18;84.38;101693.94;686753;28;4681;-44
2022/08/09 01:40:35;;;;;;;6.78;3.10;;;;;;;17.15;84.35;101697.50;689043;28;1373;-45
2022/08/09 01:41:06;;;;;;;5.90;2.70;;;;;;;17.14;85.18;101694.88;690660;28;1322;-44
2022/08/09 01:41:31;;;;;;;4.35;2.80;;;;;;;17.25;84.62;101698.25;689764;28;1260;-44
2022/08/09 01:41:54;;;;;;;5.82;2.70;;;;;;;17.26;84.32;101697.34;690580;28;4775;-46
2022/08/09 01:42:15;;;;;;;6.20;2.90;;;;;;;17.21;84.52;101695.66;690896;28;1191;-44
2022/08/09 01:42:37;;;;;;;5.07;2.92;;;;;;;17.18;85.05;101696.59;691602;28;1309;-45
2022/08/09 01:42:59;;;;;;;4.60;2.60;;;;;;;17.20;85.43;101694.81;690088;28;4355;-44
2022/08/09 01:43:20;;;;;;;4.78;2.60;;;;;;;17.14;84.61;101693.13;687319;28;1065;-45
2022/08/09 01:43:45;;;;;;;4.50;2.78;;;;;;;17.12;84.36;101697.56;687654;28;1488;-44
2022/08/09 01:44:06;;;;;;;6.35;3.00;;;;;;;17.07;85.39;101698.53;687790;28;1231;-43
2022/08/09 01:44:27;;;;;;;5.05;2.80;;;;;;;17.01;84.84;101697.72;690746;28;1446;-44
2022/08/09 01:44:49;;;;;;;5.45;2.70;;;;;;;17.10;84.70;101699.38;689897;28;1333;-46
2022/08/09 01:45:10;;;;;;;5.65;2.72;;;;;;;17.14;84.78;101695.78;688202;28;2003;-45
2022/08/09 01:45:31;;;;;;;4.32;2.80;;;;;;;17.15;84.67;101702.78;690718;28;1099;-43
2022/08/09 01:45:53;;;;;;;5.25;3.00;;;;;;;17.14;84.36;101697.53;690864;28;1243;-45
2022/08/09 01:46:15;;;;;;;4.20;2.90;;;;;;;17.16;84.58;101699.25;687584;28;4594;-46
2022/08/09 01:46:39;;;;;;;5.43;3.00;;;;;;;17.13;84.23;101694.03;688107;28;1171;-44
2022/08/09 01:47:01;;;;;;;5.82;3.00;;;;;;;17.14;84.28;101701.06;688668;28;1312;-44
2022/08/09 01:47:24;;;;;;;5.53;2.90;;;;;;;17.12;85.14;101694.06;690311;28;1352;-44
2022/08/09 01:47:46;;;;;;;5.10;2.85;;;;;;;17.11;84.58;101697.59;688605;28;1353;-45
2022/08/09 01:48:08;;;;;;;5.00;2.92;;;;;;;17.08;85.55;101703.78;688677;28;1423;-44
2022/08/09 01:48:30;;;;;;;5.75;3.10;;;;;;;17.07;84.82;101701.16;687209;28;1270;-45
2022/08/09 01:48:52;;;;;;;4.70;3.00;;;;;;;17.06;84.67;101697.66;687058;28;1244;-45
2022/08/09 01:49:15;;;;;;;5.28;2.95;;;;;;;17.07;84.25;101701.16;686072;28;4510;-45
2022/08/09 01:49:37;;;;;;;5.78;2.90;;;;;;;17.07;84.63;101699.41;689355;28;1315;-45
2022/08/09 01:49:58;;;;;;;5.28;2.78;;;;;;;17.08;84.81;101695.00;690675;28;1372;-44
2022/08/09 01:50:22;;;;;;;4.93;2.88;;;;;;;17.08;85.27;101701.13;691459;28;1234;-46
2022/08/09 01:50:49;;;;;;;4.72;2.88;;;;;;;17.07;84.67;101696.78;693412;28;1547;-45
2022/08/09 01:51:12;;;;;;;4.68;2.83;;;;;;;17.06;85.60;101702.06;689357;28;1050;-44
2022/08/09 01:51:34;;;;;;;4.88;2.80;;;;;;;17.04;85.18;101701.22;690715;28;1914;-45